sensor_id;sensor_type;location;lat;lon;timestamp;P1;durP1;ratioP1;P2;durP2;ratioP2
51226;SDS011;42714;48.260;10.980;2023-09-30T00:01:55;41.4;;;14.9;;
51226;SDS011;42714;48.260;10.980;2023-09-30T00:06:55;41.0;;;14.5;;
51226;SDS011;42714;48.260;10.980;2023-09-30T00:11:55;37.6;;;13.8;;
51226;SDS011;42714;48.260;10.980;2023-09-30T00:16:55;38.3;;;14.5;;
51226;SDS011;42714;48.260;10.980;2023-09-30T00:21:55;34.4;;;13.6;;
51226;SDS011;42714;48.260;10.980;2023-09-30T00:26:55;41.7;;;14.0;;
51226;SDS011;42714;48.260;10.980;2023-09-30T00:31:55;37.6;;;14.6;;
51226;SDS011;42714;48.260;10.980;2023-09-30T00:36:55;40.7;;;14.3;;
51226;SDS011;42714;48.260;10.980;2023-09-30T00:41:56;38.6;;;14.2;;
51226;SDS011;42714;48.260;10.980;2023-09-30T00:46:55;39.6;;;14.2;;
51226;SDS011;42714;48.260;10.980;2023-09-30T00:51:55;39.5;;;14.4;;
51226;SDS011;42714;48.260;10.980;2023-09-30T00:56:55;38.6;;;14.7;;
51226;SDS011;42714;48.260;10.980;2023-09-30T01:01:56;38.1;;;14.9;;
51226;SDS011;42714;48.260;10.980;2023-09-30T01:06:55;35.9;;;14.9;;
51226;SDS011;42714;48.260;10.980;2023-09-30T01:11:55;44.6;;;15.2;;
51226;SDS011;42714;48.260;10.980;2023-09-30T01:16:55;39.1;;;14.2;;
51226;SDS011;42714;48.260;10.980;2023-09-30T01:21:55;36.7;;;14.0;;
51226;SDS011;42714;48.260;10.980;2023-09-30T01:26:55;39.3;;;14.9;;
51226;SDS011;42714;48.260;10.980;2023-09-30T01:31:55;40.0;;;15.0;;
51226;SDS011;42714;48.260;10.980;2023-09-30T01:36:55;39.0;;;14.8;;
51226;SDS011;42714;48.260;10.980;2023-09-30T01:41:55;39.9;;;14.3;;
51226;SDS011;42714;48.260;10.980;2023-09-30T01:46:55;42.5;;;14.7;;
51226;SDS011;42714;48.260;10.980;2023-09-30T01:51:55;40.5;;;14.4;;
51226;SDS011;42714;48.260;10.980;2023-09-30T01:56:55;39.3;;;13.8;;
51226;SDS011;42714;48.260;10.980;2023-09-30T02:01:55;37.8;;;13.7;;
51226;SDS011;42714;48.260;10.980;2023-09-30T02:06:55;37.3;;;14.7;;
51226;SDS011;42714;48.260;10.980;2023-09-30T02:11:55;37.9;;;13.7;;
51226;SDS011;42714;48.260;10.980;2023-09-30T02:16:55;34.8;;;13.4;;
51226;SDS011;42714;48.260;10.980;2023-09-30T02:21:55;38.7;;;14.4;;
51226;SDS011;42714;48.260;10.980;2023-09-30T02:26:55;38.7;;;14.0;;
51226;SDS011;42714;48.260;10.980;2023-09-30T02:31:55;39.8;;;13.6;;
51226;SDS011;42714;48.260;10.980;2023-09-30T02:36:55;40.5;;;13.8;;
51226;SDS011;42714;48.260;10.980;2023-09-30T02:41:55;35.4;;;13.9;;
51226;SDS011;42714;48.260;10.980;2023-09-30T02:46:55;35.0;;;13.0;;
51226;SDS011;42714;48.260;10.980;2023-09-30T02:51:55;35.8;;;12.7;;
51226;SDS011;42714;48.260;10.980;2023-09-30T02:56:55;37.0;;;13.4;;
51226;SDS011;42714;48.260;10.980;2023-09-30T03:01:55;34.5;;;12.7;;
51226;SDS011;42714;48.260;10.980;2023-09-30T03:06:55;34.9;;;13.6;;
51226;SDS011;42714;48.260;10.980;2023-09-30T03:11:55;33.4;;;12.0;;
51226;SDS011;42714;48.260;10.980;2023-09-30T03:16:55;32.8;;;12.1;;
51226;SDS011;42714;48.260;10.980;2023-09-30T03:21:55;36.4;;;12.4;;
51226;SDS011;42714;48.260;10.980;2023-09-30T03:26:55;33.5;;;11.9;;
51226;SDS011;42714;48.260;10.980;2023-09-30T03:31:55;35.2;;;11.3;;
51226;SDS011;42714;48.260;10.980;2023-09-30T03:36:55;35.2;;;11.8;;
51226;SDS011;42714;48.260;10.980;2023-09-30T03:41:55;32.5;;;11.4;;
51226;SDS011;42714;48.260;10.980;2023-09-30T03:46:55;31.7;;;11.2;;
51226;SDS011;42714;48.260;10.980;2023-09-30T03:51:55;28.4;;;10.4;;
51226;SDS011;42714;48.260;10.980;2023-09-30T03:56:55;29.4;;;10.9;;
51226;SDS011;42714;48.260;10.980;2023-09-30T04:01:55;30.8;;;11.2;;
51226;SDS011;42714;48.260;10.980;2023-09-30T04:06:55;34.3;;;11.3;;
51226;SDS011;42714;48.260;10.980;2023-09-30T04:11:55;28.4;;;10.5;;
51226;SDS011;42714;48.260;10.980;2023-09-30T04:16:55;35.0;;;11.2;;
51226;SDS011;42714;48.260;10.980;2023-09-30T04:21:55;30.6;;;10.7;;
51226;SDS011;42714;48.260;10.980;2023-09-30T04:26:55;30.2;;;10.8;;
51226;SDS011;42714;48.260;10.980;2023-09-30T04:31:56;32.1;;;10.7;;
51226;SDS011;42714;48.260;10.980;2023-09-30T04:36:55;28.6;;;10.1;;
51226;SDS011;42714;48.260;10.980;2023-09-30T04:41:55;25.8;;;10.2;;
51226;SDS011;42714;48.260;10.980;2023-09-30T04:46:55;28.1;;;9.7;;
51226;SDS011;42714;48.260;10.980;2023-09-30T04:51:55;28.2;;;9.5;;
51226;SDS011;42714;48.260;10.980;2023-09-30T04:56:55;27.9;;;9.6;;
51226;SDS011;42714;48.260;10.980;2023-09-30T05:01:55;24.7;;;8.4;;
51226;SDS011;42714;48.260;10.980;2023-09-30T05:06:55;24.1;;;8.1;;
51226;SDS011;42714;48.260;10.980;2023-09-30T05:11:55;22.1;;;8.4;;
51226;SDS011;42714;48.260;10.980;2023-09-30T05:16:55;24.0;;;8.9;;
51226;SDS011;42714;48.260;10.980;2023-09-30T05:21:55;25.5;;;8.1;;
51226;SDS011;42714;48.260;10.980;2023-09-30T05:26:55;25.0;;;8.0;;
51226;SDS011;42714;48.260;10.980;2023-09-30T05:31:55;27.0;;;8.0;;
51226;SDS011;42714;48.260;10.980;2023-09-30T05:36:55;27.1;;;8.3;;
51226;SDS011;42714;48.260;10.980;2023-09-30T05:41:55;26.9;;;8.0;;
51226;SDS011;42714;48.260;10.980;2023-09-30T05:46:55;24.7;;;7.9;;
51226;SDS011;42714;48.260;10.980;2023-09-30T05:51:55;23.9;;;8.3;;
51226;SDS011;42714;48.260;10.980;2023-09-30T05:56:55;26.2;;;8.2;;
51226;SDS011;42714;48.260;10.980;2023-09-30T06:01:55;26.1;;;8.2;;
51226;SDS011;42714;48.260;10.980;2023-09-30T06:06:55;23.5;;;7.6;;
51226;SDS011;42714;48.260;10.980;2023-09-30T06:11:55;21.9;;;7.4;;
51226;SDS011;42714;48.260;10.980;2023-09-30T06:16:55;22.4;;;8.0;;
51226;SDS011;42714;48.260;10.980;2023-09-30T06:21:55;26.8;;;8.6;;
51226;SDS011;42714;48.260;10.980;2023-09-30T06:26:55;22.2;;;7.1;;
51226;SDS011;42714;48.260;10.980;2023-09-30T06:31:55;24.4;;;7.6;;
51226;SDS011;42714;48.260;10.980;2023-09-30T06:36:55;26.8;;;7.3;;
51226;SDS011;42714;48.260;10.980;2023-09-30T06:41:55;36.2;;;9.2;;
51226;SDS011;42714;48.260;10.980;2023-09-30T06:46:55;20.5;;;7.4;;
51226;SDS011;42714;48.260;10.980;2023-09-30T06:51:55;22.9;;;7.1;;
51226;SDS011;42714;48.260;10.980;2023-09-30T06:56:56;18.4;;;6.6;;
51226;SDS011;42714;48.260;10.980;2023-09-30T07:01:55;20.9;;;6.6;;
51226;SDS011;42714;48.260;10.980;2023-09-30T07:06:55;21.3;;;6.2;;
51226;SDS011;42714;48.260;10.980;2023-09-30T07:11:55;20.4;;;6.3;;
51226;SDS011;42714;48.260;10.980;2023-09-30T07:16:55;17.7;;;6.3;;
51226;SDS011;42714;48.260;10.980;2023-09-30T07:21:56;22.3;;;6.6;;
51226;SDS011;42714;48.260;10.980;2023-09-30T07:26:55;16.8;;;5.8;;
51226;SDS011;42714;48.260;10.980;2023-09-30T07:31:55;15.0;;;5.3;;
51226;SDS011;42714;48.260;10.980;2023-09-30T07:36:55;18.9;;;5.7;;
51226;SDS011;42714;48.260;10.980;2023-09-30T07:41:55;17.1;;;5.8;;
51226;SDS011;42714;48.260;10.980;2023-09-30T07:46:55;15.6;;;5.2;;
51226;SDS011;42714;48.260;10.980;2023-09-30T07:51:55;13.1;;;4.4;;
51226;SDS011;42714;48.260;10.980;2023-09-30T07:56:55;13.2;;;4.8;;
51226;SDS011;42714;48.260;10.980;2023-09-30T08:01:55;11.0;;;3.9;;
51226;SDS011;42714;48.260;10.980;2023-09-30T08:06:55;11.7;;;4.1;;
51226;SDS011;42714;48.260;10.980;2023-09-30T08:11:55;13.4;;;4.5;;
51226;SDS011;42714;48.260;10.980;2023-09-30T08:16:55;10.8;;;3.8;;
51226;SDS011;42714;48.260;10.980;2023-09-30T08:21:56;11.8;;;3.8;;
51226;SDS011;42714;48.260;10.980;2023-09-30T08:26:55;14.1;;;3.9;;
51226;SDS011;42714;48.260;10.980;2023-09-30T08:31:55;11.3;;;3.8;;
51226;SDS011;42714;48.260;10.980;2023-09-30T08:36:56;9.7;;;3.3;;
51226;SDS011;42714;48.260;10.980;2023-09-30T08:41:55;13.3;;;4.4;;
51226;SDS011;42714;48.260;10.980;2023-09-30T08:46:55;9.3;;;3.3;;
51226;SDS011;42714;48.260;10.980;2023-09-30T08:51:55;9.7;;;3.7;;
51226;SDS011;42714;48.260;10.980;2023-09-30T08:56:55;10.3;;;3.9;;
51226;SDS011;42714;48.260;10.980;2023-09-30T09:01:55;8.5;;;3.4;;
51226;SDS011;42714;48.260;10.980;2023-09-30T09:06:55;11.1;;;3.5;;
51226;SDS011;42714;48.260;10.980;2023-09-30T09:11:55;12.1;;;4.0;;
51226;SDS011;42714;48.260;10.980;2023-09-30T09:16:56;12.5;;;3.5;;
51226;SDS011;42714;48.260;10.980;2023-09-30T09:21:57;10.0;;;3.4;;
51226;SDS011;42714;48.260;10.980;2023-09-30T09:32:06;9.4;;;3.3;;
51226;SDS011;42714;48.260;10.980;2023-09-30T09:36:56;11.0;;;4.0;;
51226;SDS011;42714;48.260;10.980;2023-09-30T09:41:56;10.8;;;3.7;;
51226;SDS011;42714;48.260;10.980;2023-09-30T09:46:56;9.9;;;3.8;;
51226;SDS011;42714;48.260;10.980;2023-09-30T09:51:56;10.5;;;3.7;;
51226;SDS011;42714;48.260;10.980;2023-09-30T09:56:56;12.1;;;3.9;;
51226;SDS011;42714;48.260;10.980;2023-09-30T10:01:56;11.4;;;3.6;;
51226;SDS011;42714;48.260;10.980;2023-09-30T10:06:56;10.3;;;3.7;;
51226;SDS011;42714;48.260;10.980;2023-09-30T10:11:57;10.2;;;3.6;;
51226;SDS011;42714;48.260;10.980;2023-09-30T10:16:56;14.3;;;3.5;;
51226;SDS011;42714;48.260;10.980;2023-09-30T10:31:56;10.1;;;3.9;;
51226;SDS011;42714;48.260;10.980;2023-09-30T10:36:56;11.7;;;3.8;;
51226;SDS011;42714;48.260;10.980;2023-09-30T10:41:56;8.6;;;3.2;;
51226;SDS011;42714;48.260;10.980;2023-09-30T10:46:57;9.6;;;4.1;;
51226;SDS011;42714;48.260;10.980;2023-09-30T10:51:56;19.8;;;4.6;;
51226;SDS011;42714;48.260;10.980;2023-09-30T10:56:56;10.4;;;4.1;;
51226;SDS011;42714;48.260;10.980;2023-09-30T11:01:56;10.0;;;4.0;;
51226;SDS011;42714;48.260;10.980;2023-09-30T11:06:56;14.5;;;5.7;;
51226;SDS011;42714;48.260;10.980;2023-09-30T11:11:56;12.1;;;5.2;;
51226;SDS011;42714;48.260;10.980;2023-09-30T11:16:57;11.8;;;4.7;;
51226;SDS011;42714;48.260;10.980;2023-09-30T11:21:56;13.6;;;5.4;;
51226;SDS011;42714;48.260;10.980;2023-09-30T11:26:56;11.8;;;5.4;;
51226;SDS011;42714;48.260;10.980;2023-09-30T11:31:56;14.1;;;5.3;;
51226;SDS011;42714;48.260;10.980;2023-09-30T11:36:56;12.6;;;4.8;;
51226;SDS011;42714;48.260;10.980;2023-09-30T11:41:56;10.8;;;5.1;;
51226;SDS011;42714;48.260;10.980;2023-09-30T11:46:56;14.5;;;5.6;;
51226;SDS011;42714;48.260;10.980;2023-09-30T11:51:56;13.8;;;5.7;;
51226;SDS011;42714;48.260;10.980;2023-09-30T11:56:56;12.4;;;5.5;;
51226;SDS011;42714;48.260;10.980;2023-09-30T12:01:56;13.9;;;5.9;;
51226;SDS011;42714;48.260;10.980;2023-09-30T12:06:56;13.5;;;5.4;;
51226;SDS011;42714;48.260;10.980;2023-09-30T12:11:56;16.0;;;5.6;;
51226;SDS011;42714;48.260;10.980;2023-09-30T12:16:56;14.1;;;5.9;;
51226;SDS011;42714;48.260;10.980;2023-09-30T12:21:56;13.9;;;6.1;;
51226;SDS011;42714;48.260;10.980;2023-09-30T12:26:56;17.3;;;6.8;;
51226;SDS011;42714;48.260;10.980;2023-09-30T12:31:56;14.3;;;6.1;;
51226;SDS011;42714;48.260;10.980;2023-09-30T12:36:56;13.6;;;6.2;;
51226;SDS011;42714;48.260;10.980;2023-09-30T12:41:56;17.2;;;5.7;;
51226;SDS011;42714;48.260;10.980;2023-09-30T12:46:56;12.8;;;6.0;;
51226;SDS011;42714;48.260;10.980;2023-09-30T12:51:56;14.7;;;6.1;;
51226;SDS011;42714;48.260;10.980;2023-09-30T12:56:56;17.6;;;6.7;;
51226;SDS011;42714;48.260;10.980;2023-09-30T13:01:56;18.9;;;8.7;;
51226;SDS011;42714;48.260;10.980;2023-09-30T13:06:56;15.4;;;6.3;;
51226;SDS011;42714;48.260;10.980;2023-09-30T13:11:56;16.2;;;6.1;;
51226;SDS011;42714;48.260;10.980;2023-09-30T13:16:56;16.5;;;6.3;;
51226;SDS011;42714;48.260;10.980;2023-09-30T13:21:56;17.3;;;7.1;;
51226;SDS011;42714;48.260;10.980;2023-09-30T13:26:56;17.4;;;6.8;;
51226;SDS011;42714;48.260;10.980;2023-09-30T13:31:56;14.7;;;6.3;;
51226;SDS011;42714;48.260;10.980;2023-09-30T13:36:56;15.5;;;6.6;;
51226;SDS011;42714;48.260;10.980;2023-09-30T13:41:56;17.6;;;6.5;;
51226;SDS011;42714;48.260;10.980;2023-09-30T13:46:56;17.2;;;6.6;;
51226;SDS011;42714;48.260;10.980;2023-09-30T13:51:56;17.5;;;6.7;;
51226;SDS011;42714;48.260;10.980;2023-09-30T13:56:56;15.7;;;6.7;;
51226;SDS011;42714;48.260;10.980;2023-09-30T14:01:56;16.0;;;6.9;;
51226;SDS011;42714;48.260;10.980;2023-09-30T14:06:56;16.4;;;6.3;;
51226;SDS011;42714;48.260;10.980;2023-09-30T14:11:56;15.6;;;6.4;;
51226;SDS011;42714;48.260;10.980;2023-09-30T14:16:56;15.0;;;5.8;;
51226;SDS011;42714;48.260;10.980;2023-09-30T14:21:56;19.7;;;7.0;;
51226;SDS011;42714;48.260;10.980;2023-09-30T14:26:56;15.9;;;5.9;;
51226;SDS011;42714;48.260;10.980;2023-09-30T14:31:56;20.7;;;7.2;;
51226;SDS011;42714;48.260;10.980;2023-09-30T14:36:56;18.1;;;6.2;;
51226;SDS011;42714;48.260;10.980;2023-09-30T14:41:56;16.9;;;6.4;;
51226;SDS011;42714;48.260;10.980;2023-09-30T14:46:56;16.8;;;6.0;;
51226;SDS011;42714;48.260;10.980;2023-09-30T14:51:56;14.7;;;6.1;;
51226;SDS011;42714;48.260;10.980;2023-09-30T14:56:56;23.7;;;6.3;;
51226;SDS011;42714;48.260;10.980;2023-09-30T15:01:56;16.5;;;5.8;;
51226;SDS011;42714;48.260;10.980;2023-09-30T15:06:56;14.4;;;6.3;;
51226;SDS011;42714;48.260;10.980;2023-09-30T15:11:56;20.6;;;6.5;;
51226;SDS011;42714;48.260;10.980;2023-09-30T15:16:56;17.9;;;6.5;;
51226;SDS011;42714;48.260;10.980;2023-09-30T15:21:56;17.7;;;6.8;;
51226;SDS011;42714;48.260;10.980;2023-09-30T15:26:56;19.8;;;7.1;;
51226;SDS011;42714;48.260;10.980;2023-09-30T15:31:56;22.2;;;7.2;;
51226;SDS011;42714;48.260;10.980;2023-09-30T15:36:56;17.5;;;7.3;;
51226;SDS011;42714;48.260;10.980;2023-09-30T15:41:56;17.3;;;6.7;;
51226;SDS011;42714;48.260;10.980;2023-09-30T15:46:56;17.8;;;7.2;;
51226;SDS011;42714;48.260;10.980;2023-09-30T15:51:56;23.0;;;7.3;;
51226;SDS011;42714;48.260;10.980;2023-09-30T15:56:56;19.4;;;7.3;;
51226;SDS011;42714;48.260;10.980;2023-09-30T16:01:56;18.1;;;7.0;;
51226;SDS011;42714;48.260;10.980;2023-09-30T16:06:56;16.0;;;6.2;;
51226;SDS011;42714;48.260;10.980;2023-09-30T16:11:56;19.6;;;7.2;;
51226;SDS011;42714;48.260;10.980;2023-09-30T16:16:56;18.8;;;6.9;;
51226;SDS011;42714;48.260;10.980;2023-09-30T16:21:56;19.5;;;7.8;;
51226;SDS011;42714;48.260;10.980;2023-09-30T16:26:56;24.9;;;8.0;;
51226;SDS011;42714;48.260;10.980;2023-09-30T16:31:56;30.4;;;7.7;;
51226;SDS011;42714;48.260;10.980;2023-09-30T16:36:56;23.4;;;7.3;;
51226;SDS011;42714;48.260;10.980;2023-09-30T16:41:56;27.3;;;7.2;;
51226;SDS011;42714;48.260;10.980;2023-09-30T16:46:56;23.3;;;7.5;;
51226;SDS011;42714;48.260;10.980;2023-09-30T16:51:56;26.7;;;7.0;;
51226;SDS011;42714;48.260;10.980;2023-09-30T16:56:56;28.4;;;7.2;;
51226;SDS011;42714;48.260;10.980;2023-09-30T17:01:56;23.6;;;7.5;;
51226;SDS011;42714;48.260;10.980;2023-09-30T17:06:56;25.8;;;7.4;;
51226;SDS011;42714;48.260;10.980;2023-09-30T17:11:56;25.9;;;7.3;;
51226;SDS011;42714;48.260;10.980;2023-09-30T17:16:56;27.4;;;8.0;;
51226;SDS011;42714;48.260;10.980;2023-09-30T17:21:56;26.1;;;7.7;;
51226;SDS011;42714;48.260;10.980;2023-09-30T17:26:56;28.6;;;7.9;;
51226;SDS011;42714;48.260;10.980;2023-09-30T17:31:56;31.1;;;9.3;;
51226;SDS011;42714;48.260;10.980;2023-09-30T17:36:56;52.3;;;9.6;;
51226;SDS011;42714;48.260;10.980;2023-09-30T17:41:56;81.1;;;11.2;;
51226;SDS011;42714;48.260;10.980;2023-09-30T17:46:56;86.6;;;12.6;;
51226;SDS011;42714;48.260;10.980;2023-09-30T17:51:56;57.2;;;11.6;;
51226;SDS011;42714;48.260;10.980;2023-09-30T17:56:56;51.6;;;11.7;;
51226;SDS011;42714;48.260;10.980;2023-09-30T18:01:56;56.6;;;11.0;;
51226;SDS011;42714;48.260;10.980;2023-09-30T18:06:56;44.2;;;9.9;;
51226;SDS011;42714;48.260;10.980;2023-09-30T18:11:56;51.4;;;10.0;;
51226;SDS011;42714;48.260;10.980;2023-09-30T18:16:56;46.2;;;11.6;;
51226;SDS011;42714;48.260;10.980;2023-09-30T18:21:56;50.9;;;12.1;;
51226;SDS011;42714;48.260;10.980;2023-09-30T18:26:56;42.7;;;11.2;;
51226;SDS011;42714;48.260;10.980;2023-09-30T18:31:56;40.6;;;10.2;;
51226;SDS011;42714;48.260;10.980;2023-09-30T18:36:56;33.7;;;10.8;;
51226;SDS011;42714;48.260;10.980;2023-09-30T18:41:56;40.7;;;10.0;;
51226;SDS011;42714;48.260;10.980;2023-09-30T18:46:56;47.6;;;11.2;;
51226;SDS011;42714;48.260;10.980;2023-09-30T18:51:56;52.2;;;10.7;;
51226;SDS011;42714;48.260;10.980;2023-09-30T18:56:56;58.2;;;9.9;;
51226;SDS011;42714;48.260;10.980;2023-09-30T19:01:56;69.7;;;10.9;;
51226;SDS011;42714;48.260;10.980;2023-09-30T19:06:56;56.3;;;11.2;;
51226;SDS011;42714;48.260;10.980;2023-09-30T19:11:56;56.1;;;11.1;;
51226;SDS011;42714;48.260;10.980;2023-09-30T19:16:56;68.1;;;12.0;;
51226;SDS011;42714;48.260;10.980;2023-09-30T19:21:56;59.4;;;11.6;;
51226;SDS011;42714;48.260;10.980;2023-09-30T19:26:56;60.7;;;12.5;;
51226;SDS011;42714;48.260;10.980;2023-09-30T19:31:56;59.6;;;11.4;;
51226;SDS011;42714;48.260;10.980;2023-09-30T19:36:56;58.4;;;11.3;;
51226;SDS011;42714;48.260;10.980;2023-09-30T19:41:56;53.3;;;9.8;;
51226;SDS011;42714;48.260;10.980;2023-09-30T19:46:56;49.6;;;10.5;;
51226;SDS011;42714;48.260;10.980;2023-09-30T19:51:56;48.9;;;10.8;;
51226;SDS011;42714;48.260;10.980;2023-09-30T19:56:56;48.9;;;10.6;;
51226;SDS011;42714;48.260;10.980;2023-09-30T20:01:56;39.0;;;9.9;;
51226;SDS011;42714;48.260;10.980;2023-09-30T20:06:56;47.9;;;10.9;;
51226;SDS011;42714;48.260;10.980;2023-09-30T20:11:56;40.9;;;10.3;;
51226;SDS011;42714;48.260;10.980;2023-09-30T20:16:56;34.1;;;10.2;;
51226;SDS011;42714;48.260;10.980;2023-09-30T20:21:56;38.2;;;10.0;;
51226;SDS011;42714;48.260;10.980;2023-09-30T20:26:56;35.2;;;9.6;;
51226;SDS011;42714;48.260;10.980;2023-09-30T20:31:56;34.9;;;9.6;;
51226;SDS011;42714;48.260;10.980;2023-09-30T20:36:56;27.9;;;9.4;;
51226;SDS011;42714;48.260;10.980;2023-09-30T20:41:56;33.4;;;9.7;;
51226;SDS011;42714;48.260;10.980;2023-09-30T20:46:56;33.6;;;10.2;;
51226;SDS011;42714;48.260;10.980;2023-09-30T20:51:56;34.7;;;9.5;;
51226;SDS011;42714;48.260;10.980;2023-09-30T20:56:56;33.3;;;9.5;;
51226;SDS011;42714;48.260;10.980;2023-09-30T21:01:56;28.0;;;11.0;;
51226;SDS011;42714;48.260;10.980;2023-09-30T21:06:56;29.2;;;10.7;;
51226;SDS011;42714;48.260;10.980;2023-09-30T21:11:56;34.1;;;10.7;;
51226;SDS011;42714;48.260;10.980;2023-09-30T21:16:56;31.8;;;10.7;;
51226;SDS011;42714;48.260;10.980;2023-09-30T21:21:56;28.6;;;11.1;;
51226;SDS011;42714;48.260;10.980;2023-09-30T21:26:56;30.6;;;10.2;;
51226;SDS011;42714;48.260;10.980;2023-09-30T21:31:56;26.6;;;9.6;;
51226;SDS011;42714;48.260;10.980;2023-09-30T21:36:56;27.3;;;9.3;;
51226;SDS011;42714;48.260;10.980;2023-09-30T21:41:56;29.1;;;9.3;;
51226;SDS011;42714;48.260;10.980;2023-09-30T21:46:56;23.0;;;9.2;;
51226;SDS011;42714;48.260;10.980;2023-09-30T21:51:56;27.3;;;10.2;;
51226;SDS011;42714;48.260;10.980;2023-09-30T21:56:56;29.2;;;9.9;;
51226;SDS011;42714;48.260;10.980;2023-09-30T22:01:56;21.4;;;9.2;;
51226;SDS011;42714;48.260;10.980;2023-09-30T22:06:56;24.3;;;9.6;;
51226;SDS011;42714;48.260;10.980;2023-09-30T22:11:56;32.3;;;11.1;;
51226;SDS011;42714;48.260;10.980;2023-09-30T22:16:56;28.3;;;12.1;;
51226;SDS011;42714;48.260;10.980;2023-09-30T22:21:56;29.7;;;10.9;;
51226;SDS011;42714;48.260;10.980;2023-09-30T22:26:56;29.0;;;11.0;;
51226;SDS011;42714;48.260;10.980;2023-09-30T22:31:56;31.8;;;10.9;;
51226;SDS011;42714;48.260;10.980;2023-09-30T22:36:56;30.5;;;11.3;;
51226;SDS011;42714;48.260;10.980;2023-09-30T22:41:56;24.5;;;9.3;;
51226;SDS011;42714;48.260;10.980;2023-09-30T22:46:56;30.8;;;8.8;;
51226;SDS011;42714;48.260;10.980;2023-09-30T22:51:56;32.3;;;13.2;;
51226;SDS011;42714;48.260;10.980;2023-09-30T22:56:56;31.7;;;11.4;;
51226;SDS011;42714;48.260;10.980;2023-09-30T23:01:56;26.6;;;10.8;;
51226;SDS011;42714;48.260;10.980;2023-09-30T23:06:57;29.7;;;10.0;;
51226;SDS011;42714;48.260;10.980;2023-09-30T23:11:56;32.2;;;10.8;;
51226;SDS011;42714;48.260;10.980;2023-09-30T23:16:56;27.9;;;10.5;;
51226;SDS011;42714;48.260;10.980;2023-09-30T23:21:56;26.0;;;9.7;;
51226;SDS011;42714;48.260;10.980;2023-09-30T23:26:56;30.0;;;10.4;;
51226;SDS011;42714;48.260;10.980;2023-09-30T23:31:56;28.2;;;11.0;;
51226;SDS011;42714;48.260;10.980;2023-09-30T23:36:56;25.0;;;10.9;;
51226;SDS011;42714;48.260;10.980;2023-09-30T23:41:56;26.0;;;9.7;;
51226;SDS011;42714;48.260;10.980;2023-09-30T23:46:56;29.3;;;12.7;;
51226;SDS011;42714;48.260;10.980;2023-09-30T23:51:56;34.1;;;13.7;;
51226;SDS011;42714;48.260;10.980;2023-09-30T23:56:56;36.8;;;14.9;;
